createdAt,value
2023-08-07T00:01:13.121Z,13.89
2023-08-07T00:03:39.627Z,14.03
2023-08-07T00:06:06.239Z,13.86
2023-08-07T00:08:32.791Z,14.14
2023-08-07T00:11:06.568Z,13.95
2023-08-07T00:13:32.962Z,13.85
2023-08-07T00:15:59.310Z,13.96
2023-08-07T00:18:25.724Z,13.72
2023-08-07T00:20:52.098Z,13.99
2023-08-07T00:23:18.485Z,13.98
2023-08-07T00:25:44.825Z,13.82
2023-08-07T00:28:11.163Z,13.80
2023-08-07T00:30:37.569Z,13.97
2023-08-07T00:33:04.002Z,14.05
2023-08-07T00:35:30.557Z,13.92
2023-08-07T00:37:56.917Z,14.07
2023-08-07T00:40:23.313Z,13.95
2023-08-07T00:42:49.735Z,14.05
2023-08-07T00:45:16.148Z,13.72
2023-08-07T00:47:42.587Z,14.01
2023-08-07T00:50:09.472Z,13.97
2023-08-07T00:52:35.862Z,14.14
2023-08-07T00:55:02.625Z,13.81
2023-08-07T00:57:29.204Z,14.16
2023-08-07T00:59:55.563Z,13.78
2023-08-07T01:02:22.056Z,14.04
2023-08-07T01:04:48.711Z,14.05
2023-08-07T01:07:15.096Z,13.97
2023-08-07T01:09:41.949Z,14.19
2023-08-07T01:12:11.283Z,14.03
2023-08-07T01:15:00.763Z,13.97
2023-08-07T01:17:27.957Z,13.85
2023-08-07T01:19:54.590Z,13.92
2023-08-07T01:22:21.625Z,13.80
2023-08-07T01:24:49.984Z,13.72
2023-08-07T01:27:19.371Z,13.73
2023-08-07T01:29:57.813Z,13.84
2023-08-07T01:32:37.006Z,13.84
2023-08-07T01:35:05.332Z,13.81
2023-08-07T01:37:34.779Z,13.80
2023-08-07T01:40:02.577Z,13.90
2023-08-07T01:42:29.079Z,13.77
2023-08-07T01:44:55.493Z,13.83
2023-08-07T01:47:21.946Z,14.06
2023-08-07T01:49:48.365Z,13.83
2023-08-07T01:52:14.768Z,13.83
2023-08-07T01:54:41.242Z,13.88
2023-08-07T01:57:07.637Z,13.83
2023-08-07T01:59:34.023Z,13.91
2023-08-07T02:02:00.438Z,13.86
2023-08-07T02:04:26.841Z,13.87
2023-08-07T02:06:53.331Z,14.20
2023-08-07T02:09:20.192Z,13.98
2023-08-07T02:11:46.593Z,13.85
2023-08-07T02:14:13.000Z,13.93
2023-08-07T02:16:39.395Z,14.06
2023-08-07T02:19:05.787Z,14.05
2023-08-07T02:21:32.861Z,14.15
2023-08-07T02:23:59.339Z,14.11
2023-08-07T02:26:25.728Z,14.07
2023-08-07T02:28:52.093Z,14.06
2023-08-07T02:31:18.517Z,13.88
2023-08-07T02:33:44.960Z,13.95
2023-08-07T02:36:11.423Z,13.98
2023-08-07T02:38:37.785Z,13.87
2023-08-07T02:41:04.319Z,13.92
2023-08-07T02:43:33.956Z,14.07
2023-08-07T02:46:00.355Z,13.93
2023-08-07T02:48:26.716Z,14.00
2023-08-07T02:50:54.194Z,14.05
2023-08-07T02:53:20.555Z,13.94
2023-08-07T02:55:46.925Z,13.94
2023-08-07T02:58:13.311Z,14.05
2023-08-07T03:00:39.676Z,13.97
2023-08-07T03:03:06.515Z,13.85
2023-08-07T03:05:33.034Z,14.08
2023-08-07T03:07:59.415Z,14.10
2023-08-07T03:10:26.841Z,13.94
2023-08-07T03:12:53.458Z,13.65
2023-08-07T03:15:19.824Z,13.96
2023-08-07T03:17:46.240Z,13.87
2023-08-07T03:20:12.961Z,14.13
2023-08-07T03:22:39.359Z,13.81
2023-08-07T03:25:06.155Z,13.72
2023-08-07T03:27:32.608Z,13.84
2023-08-07T03:29:58.951Z,13.71
2023-08-07T03:32:25.335Z,13.64
2023-08-07T03:34:51.703Z,13.64
2023-08-07T03:37:18.098Z,13.56
2023-08-07T03:39:48.854Z,13.75
2023-08-07T03:42:18.177Z,13.86
2023-08-07T03:44:44.628Z,13.79
2023-08-07T03:47:11.035Z,13.63
2023-08-07T03:49:37.474Z,13.42
2023-08-07T03:52:04.260Z,13.39
2023-08-07T03:54:30.647Z,13.83
2023-08-07T03:56:57.350Z,13.42
2023-08-07T03:59:24.090Z,13.49
2023-08-07T04:01:50.504Z,13.73
2023-08-07T04:04:16.865Z,13.55
2023-08-07T04:06:44.911Z,13.40
2023-08-07T04:09:11.354Z,13.43
2023-08-07T04:11:37.946Z,13.27
2023-08-07T04:14:05.006Z,13.47
2023-08-07T04:16:32.464Z,13.43
2023-08-07T04:18:58.915Z,13.32
2023-08-07T04:21:25.365Z,13.19
2023-08-07T04:23:51.793Z,13.22
2023-08-07T04:26:18.166Z,13.00
2023-08-07T04:28:44.529Z,13.21
2023-08-07T04:31:10.921Z,13.15
2023-08-07T04:33:37.547Z,13.06
2023-08-07T04:36:04.319Z,13.22
2023-08-07T04:38:30.711Z,13.21
2023-08-07T04:40:57.064Z,13.19
2023-08-07T04:43:23.481Z,13.34
2023-08-07T04:45:50.050Z,13.11
2023-08-07T04:48:16.927Z,13.25
2023-08-07T04:50:43.750Z,13.29
2023-08-07T04:53:10.407Z,13.26
2023-08-07T04:55:36.824Z,13.17
2023-08-07T04:58:03.356Z,13.50
2023-08-07T05:00:30.244Z,13.41
2023-08-07T05:02:56.932Z,13.53
2023-08-07T05:05:24.333Z,13.57
2023-08-07T05:07:50.933Z,13.43
2023-08-07T05:10:17.336Z,13.60
2023-08-07T05:12:43.705Z,13.58
2023-08-07T05:15:10.503Z,13.49
2023-08-07T05:17:37.073Z,13.66
2023-08-07T05:20:03.808Z,13.90
2023-08-07T05:22:30.454Z,13.76
2023-08-07T05:24:56.852Z,13.67
2023-08-07T05:27:23.258Z,13.63
2023-08-07T05:29:49.676Z,13.64
2023-08-07T05:32:16.147Z,13.69
2023-08-07T05:34:42.889Z,13.62
2023-08-07T05:37:09.416Z,13.64
2023-08-07T05:39:36.987Z,13.76
2023-08-07T05:42:03.954Z,13.93
2023-08-07T05:44:30.898Z,13.80
2023-08-07T05:46:57.538Z,14.05
2023-08-07T05:49:26.582Z,14.56
2023-08-07T05:51:54.059Z,14.32
2023-08-07T05:54:20.842Z,14.08
2023-08-07T05:56:47.313Z,13.93
2023-08-07T05:59:13.716Z,13.86
2023-08-07T06:01:44.650Z,14.16
2023-08-07T06:04:11.224Z,14.12
2023-08-07T06:06:40.221Z,13.95
2023-08-07T06:09:07.343Z,14.09
2023-08-07T06:11:33.886Z,14.21
2023-08-07T06:14:00.264Z,13.87
2023-08-07T06:16:27.063Z,13.87
2023-08-07T06:18:53.526Z,14.06
2023-08-07T06:21:21.330Z,13.97
2023-08-07T06:23:48.036Z,13.66
2023-08-07T06:26:14.601Z,13.82
2023-08-07T06:28:41.002Z,13.79
2023-08-07T06:31:09.016Z,13.80
2023-08-07T06:33:36.188Z,13.89
2023-08-07T06:36:03.553Z,13.74
2023-08-07T06:38:30.125Z,13.94
2023-08-07T06:40:56.711Z,13.59
2023-08-07T06:43:23.163Z,13.83
2023-08-07T06:45:57.299Z,13.80
2023-08-07T06:48:24.150Z,13.48
2023-08-07T06:50:51.504Z,13.63
2023-08-07T06:53:18.430Z,13.58
2023-08-07T06:55:45.007Z,13.20
2023-08-07T06:58:11.689Z,13.40
2023-08-07T07:00:38.312Z,13.12
2023-08-07T07:03:05.180Z,13.16
2023-08-07T07:05:33.058Z,13.18
2023-08-07T07:07:59.545Z,12.98
2023-08-07T07:10:26.009Z,12.96
2023-08-07T07:12:53.319Z,13.03
2023-08-07T07:15:19.803Z,13.04
2023-08-07T07:17:46.243Z,12.92
2023-08-07T07:20:13.039Z,13.14
2023-08-07T07:22:39.422Z,13.02
2023-08-07T07:25:06.387Z,12.85
2023-08-07T07:27:32.794Z,13.07
2023-08-07T07:29:59.225Z,12.97
2023-08-07T07:32:27.110Z,12.85
2023-08-07T07:34:53.510Z,12.92
2023-08-07T07:37:19.882Z,12.93
2023-08-07T07:39:46.276Z,13.06
2023-08-07T07:42:12.705Z,13.08
2023-08-07T07:44:40.698Z,12.93
2023-08-07T07:47:07.294Z,13.08
2023-08-07T07:49:34.538Z,13.18
2023-08-07T07:52:01.125Z,13.16
2023-08-07T07:54:29.302Z,13.43
2023-08-07T07:56:55.870Z,13.19
2023-08-07T07:59:22.424Z,13.32
2023-08-07T08:01:48.794Z,13.57
2023-08-07T08:04:15.607Z,13.77
2023-08-07T08:06:42.255Z,13.63
2023-08-07T08:09:10.844Z,13.56
2023-08-07T08:11:37.303Z,13.69
2023-08-07T08:14:03.685Z,13.68
2023-08-07T08:16:30.120Z,13.59
2023-08-07T08:18:56.470Z,13.64
2023-08-07T08:21:22.822Z,13.64
2023-08-07T08:23:49.184Z,13.82
2023-08-07T08:26:15.546Z,13.90
2023-08-07T08:28:41.920Z,13.78
2023-08-07T08:31:08.366Z,14.20
2023-08-07T08:33:34.742Z,13.98
2023-08-07T08:36:01.235Z,14.30
2023-08-07T08:38:33.605Z,14.29
2023-08-07T08:41:04.336Z,14.47
2023-08-07T08:43:35.642Z,14.29
2023-08-07T08:46:02.418Z,14.27
2023-08-07T08:48:32.490Z,14.38
2023-08-07T08:50:59.706Z,14.64
2023-08-07T08:53:26.519Z,14.47
2023-08-07T08:55:53.229Z,14.53
2023-08-07T08:58:21.128Z,14.66
2023-08-07T09:00:48.747Z,14.50
2023-08-07T09:03:15.253Z,14.82
2023-08-07T09:05:42.663Z,14.52
2023-08-07T09:08:10.518Z,14.64
2023-08-07T09:10:37.942Z,14.45
2023-08-07T09:13:06.683Z,14.60
2023-08-07T09:15:34.142Z,15.01
2023-08-07T09:18:02.111Z,14.79
2023-08-07T09:20:29.490Z,14.77
2023-08-07T09:22:56.076Z,14.80
2023-08-07T09:25:29.685Z,15.08
2023-08-07T09:27:57.955Z,15.13
2023-08-07T09:30:28.491Z,15.29
2023-08-07T09:32:55.194Z,15.26
2023-08-07T09:35:22.453Z,15.20
2023-08-07T09:37:48.839Z,15.56
2023-08-07T09:40:16.937Z,15.27
2023-08-07T09:42:43.301Z,15.24
2023-08-07T09:45:27.272Z,15.22
2023-08-07T09:48:12.276Z,15.02
2023-08-07T09:50:38.674Z,15.15
2023-08-07T09:53:05.028Z,15.07
2023-08-07T09:55:32.296Z,15.52
2023-08-07T09:58:00.700Z,15.27
2023-08-07T10:00:27.308Z,15.39
2023-08-07T10:02:55.270Z,15.11
2023-08-07T10:05:22.593Z,15.28
2023-08-07T10:07:49.960Z,14.96
2023-08-07T10:10:17.093Z,15.12
2023-08-07T10:12:46.980Z,15.11
2023-08-07T10:15:15.018Z,14.96
2023-08-07T10:17:42.072Z,14.96
2023-08-07T10:20:09.218Z,15.09
2023-08-07T10:22:39.163Z,15.12
2023-08-07T10:25:07.477Z,15.12
2023-08-07T10:27:43.356Z,15.16
2023-08-07T10:30:15.821Z,15.28
2023-08-07T10:32:45.325Z,15.64
2023-08-07T10:35:24.660Z,15.50
2023-08-07T10:37:52.489Z,15.76
2023-08-07T10:40:21.658Z,15.88
2023-08-07T10:42:55.265Z,16.08
2023-08-07T10:45:23.768Z,16.40
2023-08-07T10:48:11.187Z,16.57
2023-08-07T10:50:58.465Z,16.70
2023-08-07T10:53:30.582Z,16.89
2023-08-07T10:55:59.915Z,16.72
2023-08-07T10:58:34.923Z,16.83
2023-08-07T11:01:19.456Z,17.09
2023-08-07T11:03:50.214Z,17.00
2023-08-07T11:06:17.747Z,17.14
2023-08-07T11:08:44.344Z,17.16
2023-08-07T11:11:10.701Z,17.32
2023-08-07T11:13:37.115Z,17.53
2023-08-07T11:16:04.340Z,17.69
2023-08-07T11:18:31.916Z,17.36
2023-08-07T11:20:58.888Z,17.38
2023-08-07T11:23:29.291Z,17.16
2023-08-07T11:25:56.320Z,17.40
2023-08-07T11:28:24.683Z,17.22
2023-08-07T11:30:54.934Z,17.46
2023-08-07T11:33:22.177Z,17.76
2023-08-07T11:35:49.605Z,18.00
2023-08-07T11:38:37.610Z,17.79
2023-08-07T11:41:06.795Z,17.61
2023-08-07T11:43:35.020Z,18.57
2023-08-07T11:46:04.738Z,18.30
2023-08-07T11:48:34.246Z,18.24
2023-08-07T11:51:02.128Z,18.75
2023-08-07T11:53:31.092Z,18.11
2023-08-07T11:56:06.201Z,17.84
2023-08-07T11:58:37.148Z,18.10
2023-08-07T12:01:21.319Z,17.87
2023-08-07T12:03:54.332Z,18.02
2023-08-07T12:06:20.763Z,18.78
2023-08-07T12:08:51.061Z,18.49
2023-08-07T12:11:17.875Z,18.73
2023-08-07T12:13:46.097Z,19.08
2023-08-07T12:16:16.988Z,19.34
2023-08-07T12:18:50.672Z,18.42
2023-08-07T12:21:24.684Z,18.91
2023-08-07T12:23:52.316Z,19.26
2023-08-07T12:26:19.116Z,19.30
2023-08-07T12:28:45.565Z,18.99
2023-08-07T12:31:12.032Z,18.87
2023-08-07T12:33:38.474Z,18.96
2023-08-07T12:36:05.108Z,19.21
2023-08-07T12:38:31.583Z,19.16
2023-08-07T12:40:58.613Z,19.50
2023-08-07T12:43:25.097Z,19.77
2023-08-07T12:45:53.432Z,20.28
2023-08-07T12:48:20.789Z,20.04
2023-08-07T12:50:47.208Z,20.13
2023-08-07T12:53:13.562Z,20.09
2023-08-07T12:55:40.060Z,20.00
2023-08-07T12:58:06.653Z,19.82
2023-08-07T13:00:33.408Z,19.55
2023-08-07T13:03:00.364Z,19.30
2023-08-07T13:05:26.903Z,19.76
2023-08-07T13:07:55.851Z,20.28
2023-08-07T13:10:23.201Z,20.48
2023-08-07T13:12:50.742Z,20.09
2023-08-07T13:15:18.653Z,20.63
2023-08-07T13:17:45.632Z,19.93
2023-08-07T13:20:14.846Z,19.41
2023-08-07T13:22:43.411Z,19.31
2023-08-07T13:25:11.134Z,19.35
2023-08-07T13:27:38.866Z,19.93
2023-08-07T13:30:06.411Z,20.27
2023-08-07T13:32:35.791Z,20.43
2023-08-07T13:35:03.543Z,20.79
2023-08-07T13:37:30.281Z,20.54
2023-08-07T13:39:56.850Z,19.81
2023-08-07T13:42:28.382Z,20.07
2023-08-07T13:44:56.486Z,19.59
2023-08-07T13:47:22.923Z,19.55
2023-08-07T13:49:49.515Z,19.57
2023-08-07T13:52:16.167Z,19.41
2023-08-07T13:54:42.590Z,20.00
2023-08-07T13:57:08.964Z,21.12
2023-08-07T13:59:35.395Z,21.16
2023-08-07T14:02:01.868Z,20.23
2023-08-07T14:04:28.236Z,20.21
2023-08-07T14:06:54.702Z,19.86
2023-08-07T14:09:22.841Z,20.60
2023-08-07T14:11:50.441Z,19.79
2023-08-07T14:14:16.925Z,19.43
2023-08-07T14:16:43.961Z,19.52
2023-08-07T14:19:10.632Z,19.22
2023-08-07T14:21:37.080Z,18.77
2023-08-07T14:24:03.686Z,18.14
2023-08-07T14:26:30.323Z,18.57
2023-08-07T14:28:56.686Z,18.46
2023-08-07T14:31:23.083Z,18.88
2023-08-07T14:33:49.988Z,19.38
2023-08-07T14:36:16.752Z,19.43
2023-08-07T14:38:43.201Z,19.23
2023-08-07T14:41:09.643Z,19.54
2023-08-07T14:43:36.213Z,19.87
2023-08-07T14:46:02.630Z,19.52
2023-08-07T14:48:29.174Z,19.54
2023-08-07T14:50:57.165Z,19.04
2023-08-07T14:53:23.603Z,19.16
2023-08-07T14:55:50.054Z,19.13
2023-08-07T14:58:16.453Z,19.12
2023-08-07T15:00:43.083Z,19.04
2023-08-07T15:03:09.560Z,18.90
2023-08-07T15:05:36.030Z,18.92
2023-08-07T15:08:02.680Z,18.95
2023-08-07T15:10:29.742Z,18.89
2023-08-07T15:12:57.267Z,19.03
2023-08-07T15:15:23.645Z,19.08
2023-08-07T15:17:50.095Z,19.21
2023-08-07T15:20:17.017Z,19.13
2023-08-07T15:22:43.404Z,19.07
2023-08-07T15:25:10.891Z,19.48
2023-08-07T15:27:37.377Z,19.63
2023-08-07T15:30:04.036Z,19.81
2023-08-07T15:32:30.413Z,19.49
2023-08-07T15:34:56.851Z,19.39
2023-08-07T15:37:23.277Z,20.03
2023-08-07T15:39:49.744Z,20.48
2023-08-07T15:42:16.111Z,19.82
2023-08-07T15:44:42.494Z,19.70
2023-08-07T15:47:08.866Z,19.62
2023-08-07T15:49:35.302Z,19.69
2023-08-07T15:52:01.715Z,19.37
2023-08-07T15:54:28.076Z,19.89
2023-08-07T15:56:54.487Z,20.20
2023-08-07T15:59:20.891Z,20.47
2023-08-07T16:01:47.386Z,21.00
2023-08-07T16:04:13.805Z,21.80
2023-08-07T16:06:40.330Z,21.40
2023-08-07T16:09:07.291Z,21.99
2023-08-07T16:11:33.791Z,22.39
2023-08-07T16:14:00.214Z,20.59
2023-08-07T16:16:27.183Z,20.04
2023-08-07T16:18:53.648Z,20.11
2023-08-07T16:21:20.293Z,21.08
2023-08-07T16:23:46.685Z,20.57
2023-08-07T16:26:13.057Z,20.67
2023-08-07T16:28:39.525Z,20.47
2023-08-07T16:31:05.941Z,20.35
2023-08-07T16:33:32.339Z,20.87
2023-08-07T16:35:58.709Z,20.47
2023-08-07T16:38:25.072Z,20.39
2023-08-07T16:40:51.477Z,20.30
2023-08-07T16:43:17.831Z,20.41
2023-08-07T16:45:44.237Z,20.41
2023-08-07T16:48:11.043Z,20.50
2023-08-07T16:50:37.607Z,20.37
2023-08-07T16:53:04.302Z,20.05
2023-08-07T16:55:30.686Z,19.95
2023-08-07T16:57:57.101Z,19.59
2023-08-07T17:00:23.636Z,19.99
2023-08-07T17:02:50.346Z,19.37
2023-08-07T17:05:16.866Z,19.63
2023-08-07T17:07:43.279Z,19.34
2023-08-07T17:10:14.110Z,19.15
2023-08-07T17:12:41.867Z,19.57
2023-08-07T17:15:08.760Z,19.52
2023-08-07T17:17:35.381Z,19.53
2023-08-07T17:20:02.331Z,19.30
2023-08-07T17:22:28.857Z,19.61
2023-08-07T17:24:55.248Z,19.48
2023-08-07T17:27:21.974Z,19.52
2023-08-07T17:29:48.394Z,19.61
2023-08-07T17:32:14.963Z,19.42
2023-08-07T17:34:41.358Z,19.23
2023-08-07T17:37:07.778Z,19.53
2023-08-07T17:39:34.163Z,19.49
2023-08-07T17:42:00.585Z,19.52
2023-08-07T17:44:26.996Z,19.37
2023-08-07T17:46:53.846Z,19.81
2023-08-07T17:49:20.353Z,19.22
2023-08-07T17:51:46.819Z,19.11
2023-08-07T17:54:13.209Z,19.07
2023-08-07T17:56:39.555Z,19.03
2023-08-07T17:59:06.747Z,19.27
2023-08-07T18:01:33.502Z,19.04
2023-08-07T18:04:02.951Z,19.40
2023-08-07T18:06:30.313Z,19.13
2023-08-07T18:08:57.765Z,19.02
2023-08-07T18:11:24.149Z,19.00
2023-08-07T18:13:50.684Z,18.92
2023-08-07T18:16:17.701Z,18.89
2023-08-07T18:18:44.567Z,18.88
2023-08-07T18:21:11.244Z,19.11
2023-08-07T18:23:37.617Z,18.89
2023-08-07T18:26:04.032Z,19.21
2023-08-07T18:28:33.479Z,19.28
2023-08-07T18:31:00.209Z,19.10
2023-08-07T18:33:27.835Z,19.19
2023-08-07T18:35:55.271Z,18.93
2023-08-07T18:38:21.687Z,18.97
2023-08-07T18:40:48.157Z,18.72
2023-08-07T18:43:14.585Z,18.66
2023-08-07T18:45:40.965Z,18.69
2023-08-07T18:48:08.997Z,18.87
2023-08-07T18:50:35.595Z,18.57
2023-08-07T18:53:02.233Z,18.86
2023-08-07T18:55:29.002Z,18.60
2023-08-07T18:57:55.368Z,18.54
2023-08-07T19:00:22.132Z,18.57
2023-08-07T19:02:49.137Z,18.50
2023-08-07T19:05:15.698Z,18.21
2023-08-07T19:07:42.338Z,18.36
2023-08-07T19:10:09.313Z,18.19
2023-08-07T19:12:36.207Z,18.24
2023-08-07T19:15:04.394Z,18.12
2023-08-07T19:17:30.773Z,18.35
2023-08-07T19:19:57.369Z,18.33
2023-08-07T19:22:26.393Z,18.44
2023-08-07T19:24:53.202Z,18.41
2023-08-07T19:27:19.851Z,18.24
2023-08-07T19:29:46.271Z,18.03
2023-08-07T19:32:12.828Z,18.08
2023-08-07T19:34:39.198Z,18.18
2023-08-07T19:37:06.197Z,18.24
2023-08-07T19:39:32.770Z,18.16
2023-08-07T19:41:59.172Z,18.22
2023-08-07T19:44:25.698Z,17.90
2023-08-07T19:46:52.145Z,18.09
2023-08-07T19:49:18.554Z,18.06
2023-08-07T19:51:45.171Z,18.00
2023-08-07T19:54:12.416Z,17.86
2023-08-07T19:56:38.835Z,17.80
2023-08-07T19:59:06.265Z,17.76
2023-08-07T20:01:33.377Z,17.94
2023-08-07T20:06:56.984Z,18.11
2023-08-07T20:09:23.590Z,17.99
2023-08-07T20:11:49.974Z,18.14
2023-08-07T20:14:16.462Z,17.82
2023-08-07T20:16:42.881Z,18.00
2023-08-07T20:19:09.337Z,17.74
2023-08-07T20:21:36.011Z,17.92
2023-08-07T20:24:02.471Z,17.61
2023-08-07T20:26:29.594Z,17.84
2023-08-07T20:28:58.624Z,17.90
2023-08-07T20:31:25.379Z,17.84
2023-08-07T20:33:51.787Z,17.79
2023-08-07T20:36:18.552Z,17.82
2023-08-07T20:38:44.904Z,17.52
2023-08-07T20:41:11.281Z,17.72
2023-08-07T20:43:37.635Z,17.64
2023-08-07T20:46:04.046Z,17.70
2023-08-07T20:48:30.544Z,17.83
2023-08-07T20:50:56.967Z,17.68
2023-08-07T20:53:23.343Z,17.64
2023-08-07T20:55:49.709Z,17.57
2023-08-07T20:58:16.072Z,17.35
2023-08-07T21:00:42.510Z,17.49
2023-08-07T21:03:08.983Z,17.43
2023-08-07T21:05:35.418Z,17.30
2023-08-07T21:08:01.836Z,17.53
2023-08-07T21:10:28.224Z,17.49
2023-08-07T21:12:54.582Z,17.25
2023-08-07T21:15:21.296Z,17.28
2023-08-07T21:17:47.733Z,17.23
2023-08-07T21:20:14.359Z,17.39
2023-08-07T21:22:41.002Z,17.21
2023-08-07T21:25:07.944Z,17.01
2023-08-07T21:27:35.003Z,16.85
2023-08-07T21:30:01.431Z,17.02
2023-08-07T21:32:27.802Z,16.88
2023-08-07T21:34:54.406Z,17.01
2023-08-07T21:37:21.994Z,16.83
2023-08-07T21:39:48.389Z,16.81
2023-08-07T21:42:14.984Z,16.91
2023-08-07T21:44:41.419Z,16.99
2023-08-07T21:47:07.956Z,17.20
2023-08-07T21:49:34.816Z,16.96
2023-08-07T21:52:01.646Z,16.99
2023-08-07T21:54:28.008Z,16.82
2023-08-07T21:56:54.360Z,16.85
2023-08-07T21:59:20.836Z,16.83
2023-08-07T22:01:47.273Z,16.87
2023-08-07T22:04:13.668Z,16.89
2023-08-07T22:06:40.166Z,16.78
2023-08-07T22:09:06.594Z,16.75
2023-08-07T22:11:32.975Z,16.74
2023-08-07T22:14:00.365Z,16.85
2023-08-07T22:16:27.317Z,16.85
2023-08-07T22:18:53.752Z,16.84
2023-08-07T22:21:20.201Z,16.66
2023-08-07T22:23:46.696Z,16.82
2023-08-07T22:26:13.107Z,16.88
2023-08-07T22:28:39.800Z,17.07
2023-08-07T22:31:07.049Z,16.85
2023-08-07T22:33:36.111Z,16.51
2023-08-07T22:36:02.553Z,16.74
2023-08-07T22:38:31.320Z,16.64
2023-08-07T22:40:57.720Z,16.47
2023-08-07T22:43:24.461Z,16.56
2023-08-07T22:45:51.346Z,16.48
2023-08-07T22:48:18.027Z,16.57
2023-08-07T22:50:44.420Z,16.64
2023-08-07T22:53:10.782Z,16.61
2023-08-07T22:55:37.547Z,16.65
2023-08-07T22:58:04.110Z,16.54
2023-08-07T23:00:32.441Z,16.29
2023-08-07T23:14:19.788Z,16.27
2023-08-07T23:28:25.735Z,15.99
2023-08-07T23:30:52.523Z,16.10
2023-08-07T23:33:18.925Z,16.19
2023-08-07T23:35:45.308Z,16.04
2023-08-07T23:38:11.721Z,15.89
2023-08-07T23:40:39.595Z,15.83
2023-08-07T23:43:08.593Z,15.73
2023-08-07T23:45:35.305Z,15.96
2023-08-07T23:48:01.730Z,15.80
2023-08-07T23:50:28.146Z,15.60
2023-08-07T23:52:54.525Z,15.52
2023-08-07T23:55:20.931Z,15.61
2023-08-07T23:57:47.318Z,15.63
